createdAt,value
2018-07-19T00:01:22.676Z,3.53
2018-07-19T00:03:52.485Z,4.73
2018-07-19T00:06:23.049Z,3.63
2018-07-19T00:08:53.089Z,2.80
2018-07-19T00:11:23.195Z,3.40
2018-07-19T00:13:53.219Z,7.03
2018-07-19T00:16:23.159Z,4.83
2018-07-19T00:18:53.181Z,2.63
2018-07-19T00:21:23.247Z,5.10
2018-07-19T00:23:52.743Z,2.87
2018-07-19T00:26:22.348Z,3.13
2018-07-19T00:28:51.975Z,4.30
2018-07-19T00:31:22.052Z,5.00
2018-07-19T00:33:52.365Z,3.77
2018-07-19T00:36:22.126Z,3.57
2018-07-19T00:38:51.685Z,2.37
2018-07-19T00:41:21.455Z,3.57
2018-07-19T00:43:51.169Z,3.10
2018-07-19T00:46:20.835Z,4.23
2018-07-19T00:48:50.359Z,3.13
2018-07-19T00:51:20.101Z,3.13
2018-07-19T00:53:49.717Z,2.53
2018-07-19T00:56:19.415Z,3.03
2018-07-19T00:58:50.200Z,2.27
2018-07-19T01:01:20.769Z,3.37
2018-07-19T01:03:50.995Z,2.77
2018-07-19T01:06:20.751Z,2.37
2018-07-19T01:08:50.797Z,5.33
2018-07-19T01:11:20.515Z,2.47
2018-07-19T01:13:50.726Z,2.50
2018-07-19T01:16:20.811Z,2.63
2018-07-19T01:18:50.750Z,3.73
2018-07-19T01:21:20.856Z,2.53
2018-07-19T01:23:50.969Z,2.90
2018-07-19T01:26:21.245Z,3.07
2018-07-19T01:28:50.853Z,3.20
2018-07-19T01:31:20.745Z,3.57
2018-07-19T01:33:50.659Z,2.77
2018-07-19T01:36:21.422Z,3.90
2018-07-19T01:38:51.606Z,2.53
2018-07-19T01:42:34.378Z,2.50
2018-07-19T01:45:04.142Z,2.63
2018-07-19T01:47:34.544Z,3.30
2018-07-19T01:50:05.002Z,3.60
2018-07-19T01:52:34.648Z,3.57
2018-07-19T01:55:04.762Z,5.90
2018-07-19T01:57:34.929Z,2.77
2018-07-19T02:00:05.325Z,3.20
2018-07-19T02:02:34.839Z,4.60
2018-07-19T02:05:04.590Z,3.97
2018-07-19T02:07:34.183Z,3.03
2018-07-19T02:10:03.689Z,3.63
2018-07-19T02:12:33.341Z,5.17
2018-07-19T02:15:03.041Z,4.40
2018-07-19T02:17:32.896Z,5.53
2018-07-19T02:20:02.263Z,2.63
2018-07-19T02:22:31.679Z,3.17
2018-07-19T02:25:01.148Z,3.10
2018-07-19T02:27:30.764Z,4.27
2018-07-19T02:30:00.261Z,3.00
2018-07-19T02:32:30.153Z,2.63
2018-07-19T02:34:59.807Z,2.70
2018-07-19T02:37:29.745Z,3.07
2018-07-19T02:39:59.793Z,3.40
2018-07-19T02:42:29.459Z,4.20
2018-07-19T02:44:58.789Z,3.40
2018-07-19T02:47:28.182Z,3.00
2018-07-19T02:49:57.651Z,2.80
2018-07-19T02:52:27.220Z,2.90
2018-07-19T02:54:56.311Z,3.27
2018-07-19T02:57:25.497Z,4.17
2018-07-19T02:59:54.724Z,4.37
2018-07-19T03:02:24.312Z,5.17
2018-07-19T03:04:53.559Z,2.87
2018-07-19T03:07:23.223Z,3.17
2018-07-19T03:09:52.823Z,5.80
2018-07-19T03:12:22.191Z,3.20
2018-07-19T03:14:51.719Z,4.03
2018-07-19T03:17:22.624Z,2.97
2018-07-19T03:19:52.301Z,3.53
2018-07-19T03:22:21.753Z,5.00
2018-07-19T03:24:51.285Z,6.87
2018-07-19T03:27:20.809Z,5.33
2018-07-19T03:29:51.012Z,7.00
2018-07-19T03:32:21.281Z,3.53
2018-07-19T03:34:51.288Z,4.43
2018-07-19T03:37:21.649Z,6.03
2018-07-19T03:39:52.557Z,5.63
2018-07-19T03:42:23.001Z,7.30
2018-07-19T03:44:53.305Z,6.50
2018-07-19T03:47:23.683Z,5.33
2018-07-19T03:49:53.663Z,4.87
2018-07-19T03:52:24.155Z,10.73
2018-07-19T03:54:54.071Z,4.53
2018-07-19T03:57:24.293Z,6.37
2018-07-19T03:59:55.371Z,5.77
2018-07-19T04:02:25.966Z,8.60
2018-07-19T04:04:56.198Z,4.87
2018-07-19T04:07:26.716Z,4.37
2018-07-19T04:09:56.529Z,7.13
2018-07-19T04:12:27.736Z,10.80
2018-07-19T04:14:58.588Z,10.10
2018-07-19T04:17:30.086Z,9.93
2018-07-19T04:20:00.969Z,11.13
2018-07-19T04:22:31.193Z,9.10
2018-07-19T04:25:03.176Z,16.93
2018-07-19T04:27:33.242Z,14.47
2018-07-19T04:30:03.721Z,12.30
2018-07-19T04:32:34.151Z,10.20
2018-07-19T04:35:05.151Z,10.63
2018-07-19T04:37:35.747Z,22.20
2018-07-19T04:40:06.433Z,15.50
2018-07-19T04:42:36.511Z,11.77
2018-07-19T04:45:07.443Z,16.40
2018-07-19T04:47:37.789Z,10.87
2018-07-19T04:50:08.651Z,13.90
2018-07-19T04:52:39.807Z,15.83
2018-07-19T04:55:10.772Z,6.97
2018-07-19T04:57:41.271Z,8.97
2018-07-19T05:00:11.701Z,8.43
2018-07-19T05:02:42.295Z,7.50
2018-07-19T05:05:13.489Z,7.10
2018-07-19T05:07:44.097Z,5.77
2018-07-19T05:10:14.997Z,7.17
2018-07-19T05:12:46.032Z,8.67
2018-07-19T05:15:16.650Z,9.67
2018-07-19T05:17:47.315Z,7.00
2018-07-19T05:20:17.285Z,6.30
2018-07-19T05:22:47.500Z,6.17
2018-07-19T05:25:18.326Z,6.63
2018-07-19T05:27:48.544Z,6.73
2018-07-19T05:30:18.920Z,6.37
2018-07-19T05:32:50.162Z,8.40
2018-07-19T05:35:20.495Z,8.70
2018-07-19T05:37:51.222Z,5.63
2018-07-19T05:40:21.789Z,6.07
2018-07-19T05:42:52.566Z,7.13
2018-07-19T05:45:22.581Z,6.30
2018-07-19T05:47:53.304Z,5.67
2018-07-19T05:50:23.686Z,8.60
2018-07-19T05:52:54.696Z,7.20
2018-07-19T05:55:25.060Z,9.50
2018-07-19T05:57:55.565Z,6.73
2018-07-19T06:00:26.108Z,4.73
2018-07-19T06:02:56.678Z,4.53
2018-07-19T06:05:27.564Z,6.13
2018-07-19T06:07:58.345Z,4.07
2018-07-19T06:10:29.199Z,3.83
2018-07-19T06:12:59.538Z,4.00
2018-07-19T06:15:29.996Z,5.37
2018-07-19T06:18:01.350Z,4.57
2018-07-19T06:20:32.391Z,4.10
2018-07-19T06:23:03.232Z,7.10
2018-07-19T06:25:33.628Z,5.33
2018-07-19T06:28:03.996Z,4.13
2018-07-19T06:30:34.818Z,3.03
2018-07-19T06:33:04.591Z,2.30
2018-07-19T06:35:35.127Z,3.57
2018-07-19T06:38:05.053Z,2.77
2018-07-19T06:40:35.773Z,3.93
2018-07-19T06:43:06.942Z,3.13
2018-07-19T06:45:37.871Z,3.97
2018-07-19T06:48:07.994Z,3.53
2018-07-19T06:50:38.402Z,3.83
2018-07-19T06:53:08.740Z,3.13
2018-07-19T06:55:38.988Z,2.77
2018-07-19T06:58:09.872Z,3.03
2018-07-19T07:00:40.149Z,2.17
2018-07-19T07:03:10.886Z,2.80
2018-07-19T07:05:41.319Z,1.77
2018-07-19T07:08:11.935Z,2.03
2018-07-19T07:10:41.614Z,2.33
2018-07-19T07:13:11.950Z,1.50
2018-07-19T07:15:41.816Z,3.60
2018-07-19T07:18:12.636Z,2.27
2018-07-19T07:20:47.644Z,3.40
2018-07-19T07:23:18.646Z,1.13
2018-07-19T07:25:52.963Z,3.33
2018-07-19T07:28:26.002Z,2.83
2018-07-19T07:30:56.353Z,2.70
2018-07-19T07:33:27.406Z,1.10
2018-07-19T07:35:58.947Z,2.83
2018-07-19T07:38:30.118Z,1.23
2018-07-19T07:41:00.576Z,2.17
2018-07-19T07:43:30.942Z,2.53
2018-07-19T07:46:01.133Z,1.53
2018-07-19T07:48:31.258Z,1.57
2018-07-19T07:51:01.149Z,1.33
2018-07-19T07:53:31.582Z,2.30
2018-07-19T07:56:02.904Z,1.30
2018-07-19T07:58:32.779Z,1.10
2018-07-19T08:01:02.779Z,1.53
2018-07-19T08:03:32.773Z,1.57
2018-07-19T08:06:02.637Z,1.70
2018-07-19T08:08:32.536Z,1.40
2018-07-19T08:11:03.551Z,1.30
2018-07-19T08:13:33.645Z,1.40
2018-07-19T08:16:03.789Z,3.13
2018-07-19T08:18:33.690Z,1.77
2018-07-19T08:21:03.771Z,1.57
2018-07-19T08:23:33.815Z,1.97
2018-07-19T08:26:03.909Z,3.67
2018-07-19T08:28:33.861Z,1.60
2018-07-19T08:31:04.044Z,2.80
2018-07-19T08:33:35.721Z,2.33
2018-07-19T08:36:06.447Z,2.43
2018-07-19T08:38:36.339Z,1.93
2018-07-19T08:41:06.969Z,2.50
2018-07-19T08:43:36.845Z,2.00
2018-07-19T08:46:07.071Z,1.70
2018-07-19T08:48:37.021Z,1.90
2018-07-19T08:51:07.591Z,1.60
2018-07-19T08:53:37.702Z,1.57
2018-07-19T08:56:07.663Z,3.00
2018-07-19T08:58:37.434Z,1.87
2018-07-19T09:01:07.799Z,2.70
2018-07-19T09:03:37.680Z,2.27
2018-07-19T09:06:07.845Z,1.80
2018-07-19T09:08:38.169Z,2.30
2018-07-19T09:11:08.800Z,1.90
2018-07-19T09:13:40.146Z,2.30
2018-07-19T09:16:10.837Z,2.40
2018-07-19T09:18:41.216Z,2.10
2018-07-19T09:21:11.777Z,1.90
2018-07-19T09:23:42.112Z,2.90
2018-07-19T09:26:12.765Z,2.00
2018-07-19T09:28:42.843Z,3.00
2018-07-19T09:31:12.847Z,3.67
2018-07-19T09:33:42.932Z,3.20
2018-07-19T09:36:13.308Z,3.37
2018-07-19T09:38:43.346Z,1.97
2018-07-19T09:41:13.533Z,2.13
2018-07-19T09:43:43.895Z,2.63
2018-07-19T09:46:14.277Z,4.87
2018-07-19T09:48:44.401Z,4.77
2018-07-19T09:51:14.751Z,2.30
2018-07-19T09:53:45.419Z,2.30
2018-07-19T09:56:15.853Z,2.23
2018-07-19T09:58:46.371Z,2.27
2018-07-19T10:01:20.877Z,4.13
2018-07-19T10:03:52.096Z,2.93
2018-07-19T10:06:22.751Z,2.40
2018-07-19T10:08:52.424Z,2.37
2018-07-19T10:11:22.196Z,2.57
2018-07-19T10:13:51.947Z,4.33
2018-07-19T10:16:22.025Z,2.37
2018-07-19T10:18:52.201Z,2.73
2018-07-19T10:21:21.619Z,3.03
2018-07-19T10:23:51.451Z,2.50
2018-07-19T10:26:21.685Z,2.30
2018-07-19T10:28:52.633Z,2.30
2018-07-19T10:31:23.954Z,3.10
2018-07-19T10:33:54.949Z,2.37
2018-07-19T10:36:26.560Z,2.50
2018-07-19T10:38:57.517Z,2.40
2018-07-19T10:41:27.718Z,2.93
2018-07-19T10:43:57.587Z,2.47
2018-07-19T10:46:28.710Z,2.50
2018-07-19T10:48:58.980Z,2.87
2018-07-19T10:51:29.223Z,3.33
2018-07-19T10:53:59.427Z,3.23
2018-07-19T10:56:30.942Z,2.60
2018-07-19T10:59:03.295Z,2.47
2018-07-19T11:01:33.856Z,2.50
2018-07-19T11:04:03.346Z,2.90
2018-07-19T11:06:33.507Z,2.53
2018-07-19T11:09:04.064Z,3.03
2018-07-19T11:11:34.927Z,3.90
2018-07-19T11:14:05.108Z,3.73
2018-07-19T11:16:36.592Z,2.87
2018-07-19T11:19:07.411Z,4.67
2018-07-19T11:21:37.493Z,3.63
2018-07-19T11:24:07.865Z,3.03
2018-07-19T11:26:38.497Z,2.47
2018-07-19T11:29:08.572Z,5.90
2018-07-19T11:31:38.804Z,4.27
2018-07-19T11:34:09.127Z,4.47
2018-07-19T11:36:38.939Z,2.40
2018-07-19T11:39:09.657Z,4.83
2018-07-19T11:41:39.610Z,3.10
2018-07-19T11:44:09.566Z,2.93
2018-07-19T11:46:39.985Z,5.33
2018-07-19T11:49:10.419Z,3.17
2018-07-19T11:51:40.407Z,2.80
2018-07-19T11:54:10.317Z,2.50
2018-07-19T11:56:40.212Z,3.47
2018-07-19T11:59:09.933Z,4.80
2018-07-19T12:01:39.966Z,3.00
2018-07-19T12:04:10.347Z,3.03
2018-07-19T12:06:39.973Z,2.97
2018-07-19T12:09:11.883Z,4.77
2018-07-19T12:11:41.821Z,4.13
2018-07-19T12:14:11.984Z,2.60
2018-07-19T12:16:42.095Z,3.03
2018-07-19T12:19:12.076Z,2.73
2018-07-19T12:21:41.933Z,3.13
2018-07-19T12:24:11.935Z,2.97
2018-07-19T12:26:41.850Z,3.17
2018-07-19T12:29:11.709Z,3.00
2018-07-19T12:31:41.792Z,3.67
2018-07-19T12:34:11.295Z,3.60
2018-07-19T12:36:41.145Z,2.70
2018-07-19T12:39:12.013Z,3.17
2018-07-19T12:41:42.340Z,4.83
2018-07-19T12:44:12.545Z,3.00
2018-07-19T12:46:42.057Z,5.63
2018-07-19T12:49:12.036Z,4.07
2018-07-19T12:51:41.549Z,2.67
2018-07-19T12:54:13.168Z,3.37
2018-07-19T12:56:43.446Z,5.67
2018-07-19T12:59:13.809Z,2.77
2018-07-19T13:01:44.446Z,5.17
2018-07-19T13:04:14.869Z,3.23
2018-07-19T13:06:44.972Z,3.07
2018-07-19T13:09:15.071Z,2.87
2018-07-19T13:11:45.287Z,3.07
2018-07-19T13:14:15.129Z,3.03
2018-07-19T13:16:46.277Z,3.20
2018-07-19T13:19:16.699Z,4.10
2018-07-19T13:21:48.320Z,3.60
2018-07-19T13:24:18.808Z,3.07
2018-07-19T13:26:49.250Z,3.50
2018-07-19T13:29:19.651Z,2.60
2018-07-19T13:31:50.064Z,3.57
2018-07-19T13:34:21.823Z,2.97
2018-07-19T13:36:52.662Z,3.40
2018-07-19T13:39:22.935Z,5.67
2018-07-19T13:41:53.381Z,4.63
2018-07-19T13:44:24.204Z,6.47
2018-07-19T13:46:54.145Z,3.40
2018-07-19T13:49:24.385Z,3.43
2018-07-19T13:51:54.384Z,4.10
2018-07-19T13:54:39.998Z,4.43
2018-07-19T13:57:09.613Z,2.80
2018-07-19T13:59:40.636Z,4.03
2018-07-19T14:02:10.897Z,3.07
2018-07-19T14:04:41.618Z,3.70
2018-07-19T14:07:12.000Z,3.27
2018-07-19T14:09:42.921Z,4.13
2018-07-19T14:12:12.788Z,2.90
2018-07-19T14:14:43.162Z,2.57
2018-07-19T14:17:14.367Z,3.97
2018-07-19T14:19:45.536Z,5.60
2018-07-19T14:22:16.354Z,3.37
2018-07-19T14:24:46.968Z,4.10
2018-07-19T14:27:16.966Z,2.97
2018-07-19T14:29:46.864Z,5.93
2018-07-19T14:32:17.056Z,4.03
2018-07-19T14:34:47.500Z,3.10
2018-07-19T14:37:18.089Z,2.77
2018-07-19T14:39:48.130Z,6.27
2018-07-19T14:42:19.022Z,5.03
2018-07-19T14:44:50.316Z,4.77
2018-07-19T14:47:20.323Z,3.03
2018-07-19T14:49:50.334Z,3.63
2018-07-19T14:52:20.518Z,4.20
2018-07-19T14:54:50.501Z,2.97
2018-07-19T14:57:20.334Z,3.13
2018-07-19T14:59:50.522Z,3.73
2018-07-19T15:02:21.240Z,3.90
2018-07-19T15:04:51.487Z,2.83
2018-07-19T15:07:21.483Z,4.50
2018-07-19T15:09:51.982Z,2.90
2018-07-19T15:12:22.004Z,2.83
2018-07-19T15:14:51.702Z,3.07
2018-07-19T15:17:21.584Z,2.50
2018-07-19T15:19:51.416Z,2.87
2018-07-19T15:22:21.518Z,5.60
2018-07-19T15:24:52.765Z,2.60
2018-07-19T15:27:23.626Z,2.57
2018-07-19T15:29:54.068Z,3.33
2018-07-19T15:32:23.966Z,3.77
2018-07-19T15:34:54.760Z,2.90
2018-07-19T15:37:24.558Z,3.03
2018-07-19T15:39:54.676Z,3.53
2018-07-19T15:42:25.139Z,3.17
2018-07-19T15:44:55.193Z,2.73
2018-07-19T15:47:25.508Z,5.63
2018-07-19T15:49:55.842Z,2.60
2018-07-19T15:52:26.180Z,4.23
2018-07-19T15:54:55.869Z,5.00
2018-07-19T15:57:25.881Z,4.53
2018-07-19T15:59:56.780Z,3.17
2018-07-19T16:02:27.037Z,3.00
2018-07-19T16:04:57.274Z,4.83
2018-07-19T16:07:27.206Z,3.00
2018-07-19T16:09:56.968Z,2.87
2018-07-19T16:12:27.064Z,2.90
2018-07-19T16:14:58.636Z,3.27
2018-07-19T16:17:29.047Z,4.13
2018-07-19T16:20:00.427Z,3.00
2018-07-19T16:22:30.651Z,3.10
2018-07-19T16:25:00.628Z,3.60
2018-07-19T16:27:30.631Z,6.37
2018-07-19T16:30:00.563Z,3.23
2018-07-19T16:32:31.389Z,3.23
2018-07-19T16:35:01.678Z,3.70
2018-07-19T16:37:32.045Z,2.90
2018-07-19T16:40:01.802Z,3.13
2018-07-19T16:42:31.779Z,4.27
2018-07-19T16:45:02.298Z,2.70
2018-07-19T16:47:32.826Z,3.73
2018-07-19T16:50:02.863Z,2.80
2018-07-19T16:52:33.087Z,3.00
2018-07-19T16:55:04.163Z,2.77
2018-07-19T16:57:35.443Z,2.73
2018-07-19T17:00:06.779Z,4.60
2018-07-19T17:02:37.841Z,3.47
2018-07-19T17:05:09.894Z,4.73
2018-07-19T17:07:40.867Z,3.13
2018-07-19T17:10:11.231Z,4.03
2018-07-19T17:12:43.995Z,5.53
2018-07-19T17:15:14.107Z,4.20
2018-07-19T17:17:44.447Z,4.30
2018-07-19T17:20:14.659Z,3.67
2018-07-19T17:22:44.623Z,3.27
2018-07-19T17:25:15.465Z,3.70
2018-07-19T17:27:45.556Z,3.53
2018-07-19T17:30:16.736Z,2.80
2018-07-19T17:32:47.026Z,3.67
2018-07-19T17:35:18.216Z,3.00
2018-07-19T17:37:48.574Z,5.07
2018-07-19T17:40:19.330Z,6.17
2018-07-19T17:42:50.419Z,3.13
2018-07-19T17:45:21.126Z,5.13
2018-07-19T17:47:51.866Z,3.23
2018-07-19T17:50:23.550Z,3.97
2018-07-19T17:52:54.074Z,2.60
2018-07-19T17:55:24.409Z,2.87
2018-07-19T17:57:56.059Z,4.10
2018-07-19T18:00:28.367Z,3.20
2018-07-19T18:02:59.793Z,4.53
2018-07-19T18:05:30.540Z,3.93
2018-07-19T18:08:00.893Z,4.00
2018-07-19T18:10:31.427Z,2.87
2018-07-19T18:13:02.353Z,3.40
2018-07-19T18:15:32.834Z,4.33
2018-07-19T18:18:03.212Z,3.07
2018-07-19T18:20:34.193Z,4.40
2018-07-19T18:23:05.269Z,3.27
2018-07-19T18:25:35.883Z,3.53
2018-07-19T18:28:06.664Z,3.73
2018-07-19T18:30:36.891Z,3.17
2018-07-19T18:33:07.811Z,3.87
2018-07-19T18:35:39.119Z,3.80
2018-07-19T18:38:09.852Z,3.77
2018-07-19T18:40:39.807Z,5.43
2018-07-19T18:43:10.319Z,3.60
2018-07-19T18:45:40.525Z,4.33
2018-07-19T18:48:11.272Z,5.37
2018-07-19T18:50:41.986Z,6.53
2018-07-19T18:53:12.296Z,6.60
2018-07-19T18:55:43.011Z,4.43
2018-07-19T18:58:13.365Z,7.23
2018-07-19T19:00:45.961Z,3.80
2018-07-19T19:03:16.541Z,3.57
2018-07-19T19:05:46.738Z,3.93
2018-07-19T19:08:17.917Z,3.60
2018-07-19T19:10:48.441Z,3.67
2018-07-19T19:13:19.044Z,5.27
2018-07-19T19:15:49.772Z,3.73
2018-07-19T19:18:23.866Z,5.77
2018-07-19T19:21:00.759Z,6.07
2018-07-19T19:23:33.758Z,4.67
2018-07-19T19:26:04.819Z,6.10
2018-07-19T19:28:34.280Z,4.27
2018-07-19T19:31:03.679Z,4.73
2018-07-19T19:33:33.585Z,4.20
2018-07-19T19:36:02.840Z,5.17
2018-07-19T19:38:34.301Z,5.27
2018-07-19T19:41:03.895Z,3.67
2018-07-19T19:43:38.781Z,3.87
2018-07-19T19:46:14.795Z,3.57
2018-07-19T19:48:44.487Z,4.30
2018-07-19T19:51:14.046Z,4.97
2018-07-19T19:53:43.059Z,3.80
2018-07-19T19:56:13.549Z,4.27
2018-07-19T19:58:43.519Z,4.73
2018-07-19T20:01:13.413Z,4.73
2018-07-19T20:03:42.709Z,4.53
2018-07-19T20:06:12.023Z,4.53
2018-07-19T20:08:41.508Z,4.90
2018-07-19T20:11:11.131Z,4.93
2018-07-19T20:13:41.155Z,7.67
2018-07-19T20:16:11.996Z,6.30
2018-07-19T20:18:41.719Z,3.47
2018-07-19T20:21:11.474Z,3.80
2018-07-19T20:23:41.755Z,5.03
2018-07-19T20:26:11.638Z,6.33
2018-07-19T20:28:41.973Z,7.13
2018-07-19T20:31:11.672Z,5.67
2018-07-19T20:33:41.683Z,6.03
2018-07-19T20:36:12.245Z,6.43
2018-07-19T20:38:42.173Z,6.70
2018-07-19T20:41:11.737Z,9.00
2018-07-19T20:43:41.954Z,8.20
2018-07-19T20:46:11.707Z,7.23
2018-07-19T20:48:41.212Z,6.47
2018-07-19T20:51:10.912Z,6.87
2018-07-19T20:53:41.306Z,8.50
2018-07-19T20:56:11.125Z,6.73
2018-07-19T20:58:40.787Z,9.20
2018-07-19T21:01:10.405Z,10.17
2018-07-19T21:03:40.339Z,8.47
2018-07-19T21:06:10.517Z,6.80
2018-07-19T21:08:40.047Z,8.80
2018-07-19T21:11:10.311Z,6.83
2018-07-19T21:13:40.179Z,7.07
2018-07-19T21:16:10.299Z,5.53
2018-07-19T21:18:40.627Z,4.83
2018-07-19T21:21:12.119Z,4.43
2018-07-19T21:23:42.116Z,4.60
2018-07-19T21:26:12.193Z,5.17
2018-07-19T21:28:41.741Z,5.97
2018-07-19T21:31:11.994Z,4.13
2018-07-19T21:33:42.681Z,5.93
2018-07-19T21:36:12.063Z,7.03
2018-07-19T21:38:41.588Z,6.47
2018-07-19T21:41:12.444Z,6.60
2018-07-19T21:43:42.350Z,5.20
2018-07-19T21:46:12.064Z,7.80
2018-07-19T21:48:42.326Z,4.80
2018-07-19T21:51:12.104Z,5.27
2018-07-19T21:53:42.242Z,4.20
2018-07-19T21:56:12.677Z,5.23
2018-07-19T21:58:42.444Z,5.70
2018-07-19T22:01:13.155Z,6.10
2018-07-19T22:03:43.528Z,6.30
2018-07-19T22:06:13.521Z,5.43
2018-07-19T22:08:43.718Z,6.27
2018-07-19T22:11:13.596Z,5.43
2018-07-19T22:13:43.283Z,6.80
2018-07-19T22:16:12.831Z,5.83
2018-07-19T22:18:42.686Z,6.30
2018-07-19T22:21:12.304Z,4.87
2018-07-19T22:23:42.054Z,7.30
2018-07-19T22:26:11.878Z,6.87
2018-07-19T22:28:41.550Z,5.47
2018-07-19T22:31:11.297Z,8.17
2018-07-19T22:33:41.049Z,5.30
2018-07-19T22:36:11.056Z,6.17
2018-07-19T22:38:40.777Z,6.90
2018-07-19T22:41:10.279Z,7.50
2018-07-19T22:43:40.253Z,9.37
2018-07-19T22:46:09.824Z,6.57
2018-07-19T22:48:39.668Z,5.90
2018-07-19T22:51:09.647Z,4.97
2018-07-19T22:53:40.457Z,4.80
2018-07-19T22:56:10.158Z,5.67
2018-07-19T22:58:40.291Z,5.00
2018-07-19T23:01:10.296Z,6.43
2018-07-19T23:03:39.924Z,4.43
2018-07-19T23:06:09.956Z,4.83
2018-07-19T23:08:39.830Z,4.57
2018-07-19T23:11:09.976Z,6.13
2018-07-19T23:13:39.772Z,5.87
2018-07-19T23:16:10.125Z,6.10
2018-07-19T23:18:39.612Z,8.63
2018-07-19T23:21:09.551Z,4.63
2018-07-19T23:23:39.651Z,8.20
2018-07-19T23:26:09.358Z,5.20
2018-07-19T23:28:39.250Z,5.33
2018-07-19T23:31:09.474Z,7.20
2018-07-19T23:33:39.411Z,7.07
2018-07-19T23:36:12.682Z,5.80
2018-07-19T23:38:47.204Z,4.53
2018-07-19T23:41:21.269Z,5.23
2018-07-19T23:43:54.612Z,5.27
2018-07-19T23:46:28.514Z,5.10
2018-07-19T23:49:02.600Z,6.83
2018-07-19T23:51:32.576Z,4.50
2018-07-19T23:54:02.187Z,6.87
2018-07-19T23:56:31.809Z,5.30
2018-07-19T23:59:02.274Z,5.57
